Time;durP1;ratioP1;P1;durP2;ratioP2;P2;SDS_P1;SDS_P2;PMS_P1;PMS_P2;Temp;Humidity;BMP_temperature;BMP_pressure;BME280_temperature;BME280_humidity;BME280_pressure;Samples;Min_cycle;Max_cycle;Signal;HPM_P1;HPM_P2
2022/08/25 00:01:17;;;;;;;3.65;2.17;;;;;;;;;;5031672;28;20049;-87
2022/08/25 00:03:44;;;;;;;4.80;2.28;;;;;;;;;;5031855;28;20033;-88
2022/08/25 00:06:12;;;;;;;3.97;2.22;;;;;;;;;;5032156;28;20041;-88
2022/08/25 00:08:38;;;;;;;6.10;2.50;;;;;;;;;;5034188;28;20030;-88
2022/08/25 00:11:10;;;;;;;3.20;2.15;;;;;;;;;;5002750;28;20090;-88
2022/08/25 00:13:37;;;;;;;;;;;;;;;;;;5003624;28;20033;-88
2022/08/25 00:16:03;;;;;;;4.60;2.13;;;;;;;;;;4999348;28;19997;-88
2022/08/25 00:18:31;;;;;;;3.25;2.13;;;;;;;;;;4999110;28;20128;-88
2022/08/25 00:20:58;;;;;;;6.35;2.70;;;;;;;;;;5015613;28;20041;-88
2022/08/25 00:23:25;;;;;;;3.33;1.90;;;;;;;;;;4998894;28;20147;-88
2022/08/25 00:25:54;;;;;;;3.13;2.00;;;;;;;;;;4982964;28;20087;-88
2022/08/25 00:28:19;;;;;;;4.00;2.13;;;;;;;;;;4982786;28;20041;-88
2022/08/25 00:30:45;;;;;;;4.13;2.10;;;;;;;;;;4982759;28;20508;-88
2022/08/25 00:33:12;;;;;;;3.13;2.30;;;;;;;;;;4999105;28;20037;-88
2022/08/25 00:35:41;;;;;;;3.67;2.13;;;;;;;;;;4998810;28;20049;-87
2022/08/25 00:38:09;;;;;;;3.35;2.15;;;;;;;;;;4982776;28;20051;-88
2022/08/25 00:40:38;;;;;;;3.35;2.40;;;;;;;;;;5001060;28;20040;-87
2022/08/25 00:43:05;;;;;;;4.28;2.50;;;;;;;;;;5002423;28;20407;-88
2022/08/25 00:45:33;;;;;;;4.05;2.30;;;;;;;;;;5018458;28;20111;-88
2022/08/25 00:48:00;;;;;;;3.35;2.10;;;;;;;;;;5001971;28;20068;-88
2022/08/25 00:50:28;;;;;;;4.10;2.42;;;;;;;;;;5002004;28;20037;-87
2022/08/25 00:52:56;;;;;;;3.50;2.00;;;;;;;;;;5001982;28;20048;-88
2022/08/25 00:55:38;;;;;;;4.07;2.00;;;;;;;;;;5018454;28;20403;-88
2022/08/25 00:58:33;;;;;;;4.20;2.03;;;;;;;;;;5002543;28;20032;-88
2022/08/25 01:01:00;;;;;;;3.28;1.83;;;;;;;;;;5017504;28;20132;-88
2022/08/25 01:03:28;;;;;;;3.33;2.20;;;;;;;;;;5018121;28;20079;-88
2022/08/25 01:05:55;;;;;;;2.83;1.80;;;;;;;;;;5018098;28;20056;-88
2022/08/25 01:08:25;;;;;;;5.47;2.20;;;;;;;;;;5001417;28;20040;-88
2022/08/25 01:10:52;;;;;;;4.00;2.25;;;;;;;;;;5018575;28;20032;-88
2022/08/25 01:13:23;;;;;;;3.13;2.08;;;;;;;;;;5001744;28;20037;-88
2022/08/25 01:15:52;;;;;;;4.50;2.00;;;;;;;;;;5017596;28;20084;-86
2022/08/25 01:18:17;;;;;;;3.83;2.00;;;;;;;;;;5001266;28;20150;-87
2022/08/25 01:20:52;;;;;;;3.35;1.70;;;;;;;;;;5017595;28;20117;-88
2022/08/25 01:23:18;;;;;;;3.85;2.42;;;;;;;;;;5001978;28;20056;-88
2022/08/25 01:26:05;;;;;;;2.83;2.30;;;;;;;;;;5018490;28;20495;-88
2022/08/25 01:28:31;;;;;;;3.33;1.83;;;;;;;;;;5017924;28;20033;-88
2022/08/25 01:30:58;;;;;;;3.15;2.20;;;;;;;;;;5017679;28;20037;-88
2022/08/25 01:33:24;;;;;;;3.65;1.98;;;;;;;;;;5017967;28;20518;-88
2022/08/25 01:35:51;;;;;;;4.78;2.30;;;;;;;;;;5001728;28;20029;-87
2022/08/25 01:38:19;;;;;;;4.43;2.15;;;;;;;;;;5017657;28;20033;-88
2022/08/25 01:40:46;;;;;;;3.60;2.08;;;;;;;;;;5030186;28;20135;-88
2022/08/25 01:43:29;;;;;;;3.03;2.00;;;;;;;;;;4982040;28;20025;-87
2022/08/25 01:45:56;;;;;;;5.07;2.35;;;;;;;;;;4998537;28;20029;-87
2022/08/25 01:48:22;;;;;;;3.17;2.10;;;;;;;;;;4983752;28;20076;-87
2022/08/25 01:50:49;;;;;;;3.83;1.90;;;;;;;;;;5001928;28;20037;-88
2022/08/25 01:53:22;;;;;;;3.13;1.80;;;;;;;;;;4985536;28;20049;-88
2022/08/25 01:55:51;;;;;;;3.92;2.25;;;;;;;;;;5017970;28;20110;-87
2022/08/25 01:58:36;;;;;;;4.20;2.47;;;;;;;;;;4986072;28;20076;-88
2022/08/25 02:01:05;;;;;;;4.22;2.10;;;;;;;;;;5001787;28;20538;-88
2022/08/25 02:03:31;;;;;;;4.47;2.10;;;;;;;;;;5002084;28;20033;-88
2022/08/25 02:06:00;;;;;;;6.88;1.90;;;;;;;;;;5001566;28;20026;-88
2022/08/25 02:08:26;;;;;;;4.80;2.15;;;;;;;;;;4985128;28;20029;-87
2022/08/25 02:10:54;;;;;;;3.60;1.77;;;;;;;;;;4985290;28;20124;-88
2022/08/25 02:13:21;;;;;;;3.30;1.95;;;;;;;;;;4985499;28;20056;-87
2022/08/25 02:15:48;;;;;;;5.13;2.22;;;;;;;;;;4999131;28;20045;-88
2022/08/25 02:18:16;;;;;;;3.40;2.03;;;;;;;;;;5034035;28;20052;-88
2022/08/25 02:20:43;;;;;;;3.22;1.90;;;;;;;;;;5034129;28;20033;-88
2022/08/25 02:23:09;;;;;;;3.33;2.08;;;;;;;;;;5034055;28;20033;-87
2022/08/25 02:25:36;;;;;;;3.75;2.15;;;;;;;;;;5034073;28;20036;-88
2022/08/25 02:28:03;;;;;;;5.72;2.58;;;;;;;;;;5033949;28;20381;-86
2022/08/25 02:30:28;;;;;;;4.97;2.00;;;;;;;;;;5033345;28;20033;-87
2022/08/25 02:32:56;;;;;;;2.65;1.98;;;;;;;;;;5017757;28;20044;-87
2022/08/25 02:35:22;;;;;;;4.90;2.30;;;;;;;;;;5033285;28;20083;-87
2022/08/25 02:37:51;;;;;;;3.30;1.73;;;;;;;;;;5033099;28;20033;-87
2022/08/25 02:40:17;;;;;;;2.78;1.98;;;;;;;;;;5033897;28;20151;-87
2022/08/25 02:42:44;;;;;;;4.18;2.08;;;;;;;;;;5004053;28;20052;-86
2022/08/25 02:45:11;;;;;;;3.03;1.73;;;;;;;;;;5004113;28;20029;-87
2022/08/25 02:47:39;;;;;;;2.75;2.10;;;;;;;;;;5000517;28;20082;-87
2022/08/25 02:50:05;;;;;;;3.20;2.00;;;;;;;;;;5033270;28;20087;-87
2022/08/25 02:52:31;;;;;;;3.17;2.10;;;;;;;;;;5032960;28;20128;-88
2022/08/25 02:55:02;;;;;;;2.83;1.85;;;;;;;;;;5033616;28;20167;-87
2022/08/25 02:57:28;;;;;;;2.85;2.10;;;;;;;;;;5033778;28;20095;-87
2022/08/25 02:59:53;;;;;;;2.40;1.88;;;;;;;;;;5031785;28;20037;-87
2022/08/25 03:02:20;;;;;;;3.38;1.83;;;;;;;;;;5033262;28;20037;-88
2022/08/25 03:04:52;;;;;;;5.18;2.67;;;;;;;;;;4984141;28;20501;-87
2022/08/25 03:07:19;;;;;;;2.90;1.83;;;;;;;;;;5016710;28;20033;-87
2022/08/25 03:09:44;;;;;;;3.17;1.95;;;;;;;;;;5033207;28;20111;-86
2022/08/25 03:12:11;;;;;;;3.65;2.03;;;;;;;;;;5016769;28;20434;-87
2022/08/25 03:14:38;;;;;;;3.88;2.10;;;;;;;;;;5036285;28;20491;-87
2022/08/25 03:17:06;;;;;;;2.67;1.60;;;;;;;;;;5019979;28;20107;-87
2022/08/25 03:19:31;;;;;;;3.67;2.10;;;;;;;;;;5019270;28;20124;-87
2022/08/25 03:21:58;;;;;;;3.35;1.95;;;;;;;;;;5019734;28;20464;-87
2022/08/25 03:24:24;;;;;;;3.65;2.10;;;;;;;;;;5020074;28;20036;-87
2022/08/25 03:26:55;;;;;;;3.22;1.95;;;;;;;;;;5003485;28;20041;-87
2022/08/25 03:29:23;;;;;;;4.20;2.10;;;;;;;;;;5036609;28;20049;-87
2022/08/25 03:31:50;;;;;;;2.42;1.65;;;;;;;;;;5019454;28;21074;-87
2022/08/25 03:34:17;;;;;;;4.45;2.50;;;;;;;;;;5019416;28;20033;-87
2022/08/25 03:36:45;;;;;;;2.80;1.90;;;;;;;;;;5019679;28;20139;-87
2022/08/25 03:39:10;;;;;;;3.85;2.20;;;;;;;;;;5019471;28;20115;-88
2022/08/25 03:41:38;;;;;;;2.80;2.15;;;;;;;;;;5019230;28;20116;-88
2022/08/25 03:44:04;;;;;;;3.67;2.03;;;;;;;;;;5018898;28;20035;-87
2022/08/25 03:46:38;;;;;;;2.63;1.55;;;;;;;;;;5018958;28;20037;-87
2022/08/25 03:49:05;;;;;;;3.15;2.00;;;;;;;;;;4999935;28;20049;-87
2022/08/25 03:51:52;;;;;;;3.50;1.70;;;;;;;;;;4999607;28;20092;-87
2022/08/25 03:54:21;;;;;;;2.42;2.00;;;;;;;;;;5017978;28;20049;-87
2022/08/25 03:56:48;;;;;;;3.05;2.10;;;;;;;;;;4983165;28;20534;-86
2022/08/25 03:59:15;;;;;;;3.13;1.73;;;;;;;;;;4999404;28;20042;-87
2022/08/25 04:01:42;;;;;;;2.40;1.85;;;;;;;;;;4999433;28;20032;-87
2022/08/25 04:04:08;;;;;;;2.78;2.00;;;;;;;;;;4983065;28;20488;-86
2022/08/25 04:06:33;;;;;;;3.50;1.98;;;;;;;;;;4999089;28;20183;-87
2022/08/25 04:09:00;;;;;;;3.53;2.17;;;;;;;;;;4998655;28;20052;-87
2022/08/25 04:11:26;;;;;;;4.13;1.90;;;;;;;;;;4982480;28;20116;-87
2022/08/25 04:13:51;;;;;;;4.75;2.55;;;;;;;;;;4984387;28;20033;-87
2022/08/25 04:16:19;;;;;;;3.05;2.28;;;;;;;;;;5002108;28;20116;-87
2022/08/25 04:18:45;;;;;;;3.75;2.13;;;;;;;;;;5001920;28;20471;-87
2022/08/25 04:21:11;;;;;;;4.13;2.22;;;;;;;;;;5035163;28;20044;-86
2022/08/25 04:23:39;;;;;;;5.35;2.22;;;;;;;;;;5002464;28;20516;-87
2022/08/25 04:26:12;;;;;;;3.17;1.98;;;;;;;;;;5002163;28;20135;-86
2022/08/25 04:28:38;;;;;;;4.30;2.33;;;;;;;;;;5001847;28;20032;-86
2022/08/25 04:31:06;;;;;;;3.70;2.45;;;;;;;;;;5002148;28;20044;-86
2022/08/25 04:33:33;;;;;;;4.10;2.35;;;;;;;;;;5001831;28;20025;-86
2022/08/25 04:35:59;;;;;;;2.97;2.40;;;;;;;;;;5018708;28;20048;-86
2022/08/25 04:38:26;;;;;;;3.60;2.40;;;;;;;;;;5034563;28;20037;-86
2022/08/25 04:40:59;;;;;;;4.03;2.22;;;;;;;;;;5031054;28;20033;-86
2022/08/25 04:43:25;;;;;;;3.70;2.40;;;;;;;;;;4982544;28;20034;-87
2022/08/25 04:45:53;;;;;;;4.45;2.40;;;;;;;;;;4983017;28;20087;-87
2022/08/25 04:48:19;;;;;;;3.33;1.70;;;;;;;;;;5001803;28;20079;-87
2022/08/25 04:50:46;;;;;;;3.55;1.90;;;;;;;;;;5018398;28;20082;-87
2022/08/25 04:53:12;;;;;;;3.22;2.10;;;;;;;;;;5001307;28;20074;-87
2022/08/25 04:55:41;;;;;;;4.40;2.38;;;;;;;;;;5001474;28;20036;-87
2022/08/25 04:58:07;;;;;;;3.25;2.20;;;;;;;;;;5018063;28;20040;-86
2022/08/25 05:00:36;;;;;;;4.10;2.40;;;;;;;;;;5000857;28;20040;-86
2022/08/25 05:03:02;;;;;;;2.70;2.10;;;;;;;;;;5001173;28;20488;-86
2022/08/25 05:05:29;;;;;;;3.40;1.95;;;;;;;;;;5001696;28;20033;-87
2022/08/25 05:07:54;;;;;;;3.83;2.15;;;;;;;;;;5017953;28;20037;-86
2022/08/25 05:10:20;;;;;;;3.60;1.90;;;;;;;;;;5001354;28;20035;-86
2022/08/25 05:12:45;;;;;;;3.22;2.22;;;;;;;;;;5017736;28;20037;-86
2022/08/25 05:17:55;;;;;;;3.90;2.30;;;;;;;;;;5017351;28;20048;-86
2022/08/25 05:20:22;;;;;;;4.53;2.33;;;;;;;;;;4997243;28;20033;-85
2022/08/25 05:22:47;;;;;;;4.50;2.72;;;;;;;;;;5014014;28;20125;-85
2022/08/25 05:25:14;;;;;;;5.18;3.00;;;;;;;;;;5017203;28;20100;-85
2022/08/25 05:27:42;;;;;;;8.18;2.97;;;;;;;;;;5012786;28;20507;-88
2022/08/25 05:30:10;;;;;;;3.78;2.50;;;;;;;;;;5003203;28;20076;-86
2022/08/25 05:32:37;;;;;;;6.75;3.00;;;;;;;;;;5017804;28;20029;-86
2022/08/25 05:35:04;;;;;;;5.30;2.75;;;;;;;;;;5001723;28;20079;-85
2022/08/25 05:37:29;;;;;;;6.32;2.30;;;;;;;;;;4990680;28;20132;-86
2022/08/25 05:39:56;;;;;;;4.78;3.08;;;;;;;;;;5018684;28;20499;-86
2022/08/25 05:42:22;;;;;;;6.38;2.92;;;;;;;;;;5009058;28;20112;-85
2022/08/25 05:44:48;;;;;;;10.50;3.83;;;;;;;;;;5035430;28;20028;-86
2022/08/25 05:47:14;;;;;;;7.38;3.13;;;;;;;;;;5014427;28;20045;-85
2022/08/25 05:49:39;;;;;;;3.97;2.30;;;;;;;;;;5014664;28;20067;-86
2022/08/25 05:52:05;;;;;;;5.80;3.25;;;;;;;;;;4985637;28;20041;-86
2022/08/25 05:54:30;;;;;;;5.65;3.28;;;;;;;;;;5016252;28;20052;-86
2022/08/25 05:56:56;;;;;;;6.78;3.33;;;;;;;;;;5034930;28;20082;-86
2022/08/25 05:59:22;;;;;;;6.72;2.92;;;;;;;;;;5011310;28;20022;-86
2022/08/25 06:04:31;;;;;;;5.45;3.05;;;;;;;;;;5022382;28;20034;-85
2022/08/25 06:06:57;;;;;;;6.28;3.10;;;;;;;;;;5020000;28;20067;-87
2022/08/25 06:09:23;;;;;;;5.82;3.08;;;;;;;;;;5030911;28;20495;-85
2022/08/25 06:11:48;;;;;;;4.78;2.78;;;;;;;;;;5018293;28;20175;-86
2022/08/25 06:14:14;;;;;;;6.28;3.08;;;;;;;;;;5001204;28;20036;-86
2022/08/25 06:16:39;;;;;;;5.10;2.65;;;;;;;;;;5012750;28;20036;-87
2022/08/25 06:19:06;;;;;;;4.68;3.25;;;;;;;;;;5004368;28;20047;-89
2022/08/25 06:21:33;;;;;;;5.30;2.88;;;;;;;;;;5021328;28;20124;-86
2022/08/25 06:24:02;;;;;;;7.35;3.40;;;;;;;;;;5005204;28;20128;-90
2022/08/25 06:26:29;;;;;;;5.43;3.15;;;;;;;;;;5037953;28;20039;-86
2022/08/25 06:28:54;;;;;;;5.75;3.25;;;;;;;;;;5037070;28;20039;-88
2022/08/25 06:31:23;;;;;;;3.85;2.65;;;;;;;;;;5020738;28;20029;-88
2022/08/25 06:33:50;;;;;;;4.53;2.53;;;;;;;;;;5004134;28;20025;-87
2022/08/25 06:36:18;;;;;;;6.85;2.85;;;;;;;;;;5037679;28;20483;-89
2022/08/25 06:38:44;;;;;;;7.97;3.58;;;;;;;;;;5004238;28;20131;-89
2022/08/25 06:41:11;;;;;;;6.35;3.10;;;;;;;;;;5020506;28;20127;-91
2022/08/25 06:43:36;;;;;;;6.43;3.15;;;;;;;;;;5004274;28;20080;-91
2022/08/25 06:46:12;;;;;;;6.93;2.83;;;;;;;;;;5001877;28;20036;-92
2022/08/25 06:48:38;;;;;;;6.05;2.65;;;;;;;;;;5001428;28;20033;-92
2022/08/25 06:51:05;;;;;;;5.38;3.08;;;;;;;;;;5000883;28;20037;-92
2022/08/25 06:53:30;;;;;;;6.85;3.22;;;;;;;;;;5000807;28;20052;-92
2022/08/25 06:55:56;;;;;;;5.60;3.20;;;;;;;;;;5001395;28;20049;-93
2022/08/25 06:58:22;;;;;;;7.60;3.30;;;;;;;;;;5000431;28;20760;-91
2022/08/25 07:00:48;;;;;;;8.23;3.65;;;;;;;;;;4984710;28;20549;-92
2022/08/25 07:03:13;;;;;;;8.07;3.10;;;;;;;;;;5017192;28;20126;-92
2022/08/25 07:05:39;;;;;;;6.00;3.25;;;;;;;;;;5017273;28;20045;-93
2022/08/25 07:08:04;;;;;;;6.03;2.92;;;;;;;;;;5000583;28;20170;-92
2022/08/25 07:10:29;;;;;;;7.18;3.40;;;;;;;;;;4984541;28;20033;-93
2022/08/25 07:12:55;;;;;;;5.70;2.90;;;;;;;;;;5000455;28;20044;-93
2022/08/25 07:15:20;;;;;;;5.22;3.28;;;;;;;;;;5030803;28;20037;-92
2022/08/25 07:17:46;;;;;;;4.63;3.20;;;;;;;;;;5020125;28;20029;-93
2022/08/25 07:20:13;;;;;;;5.05;2.70;;;;;;;;;;5020125;28;20477;-93
2022/08/25 07:22:39;;;;;;;5.10;2.72;;;;;;;;;;5004036;28;20124;-94
2022/08/25 07:25:04;;;;;;;4.15;2.47;;;;;;;;;;5036602;28;20048;-93
2022/08/25 07:27:30;;;;;;;5.90;2.85;;;;;;;;;;5020037;28;20479;-92
2022/08/25 07:29:56;;;;;;;4.22;1.98;;;;;;;;;;5019810;28;20491;-93
2022/08/25 07:32:21;;;;;;;4.30;2.38;;;;;;;;;;5003368;28;20029;-93
2022/08/25 07:37:31;;;;;;;4.20;2.35;;;;;;;;;;5038771;28;20025;-94
2022/08/25 07:39:58;;;;;;;4.38;2.03;;;;;;;;;;5019388;28;20087;-93
2022/08/25 07:42:26;;;;;;;5.88;2.97;;;;;;;;;;5035918;28;20556;-92
2022/08/25 07:44:52;;;;;;;4.38;2.33;;;;;;;;;;5020013;28;20029;-93
2022/08/25 07:47:17;;;;;;;3.40;2.20;;;;;;;;;;4999578;28;20401;-93
2022/08/25 07:49:43;;;;;;;6.72;2.90;;;;;;;;;;5032654;28;20128;-94
2022/08/25 07:52:08;;;;;;;4.50;2.00;;;;;;;;;;5032131;28;20047;-93
2022/08/25 07:54:34;;;;;;;4.63;2.67;;;;;;;;;;5032526;28;20287;-93
2022/08/25 07:56:59;;;;;;;4.28;2.30;;;;;;;;;;5032669;28;20037;-93
2022/08/25 07:59:24;;;;;;;3.22;1.85;;;;;;;;;;5015938;28;20037;-92
2022/08/25 08:01:50;;;;;;;4.32;2.28;;;;;;;;;;4999661;28;20032;-93
2022/08/25 08:04:15;;;;;;;5.93;2.35;;;;;;;;;;4999806;28;20037;-92
2022/08/25 08:06:41;;;;;;;2.90;1.90;;;;;;;;;;5032212;28;20039;-93
2022/08/25 08:09:06;;;;;;;5.63;2.20;;;;;;;;;;5031670;28;20033;-93
2022/08/25 08:11:33;;;;;;;7.35;2.30;;;;;;;;;;4983153;28;20037;-93
2022/08/25 08:13:59;;;;;;;3.03;1.80;;;;;;;;;;5002098;28;20037;-93
2022/08/25 08:16:25;;;;;;;4.00;2.40;;;;;;;;;;5015941;28;20037;-92
2022/08/25 08:18:51;;;;;;;3.00;1.73;;;;;;;;;;5032298;28;20381;-93
2022/08/25 08:21:25;;;;;;;5.80;2.50;;;;;;;;;;5015763;28;20049;-93
2022/08/25 08:23:51;;;;;;;7.85;2.28;;;;;;;;;;5032080;28;20455;-92
2022/08/25 08:26:17;;;;;;;4.15;2.70;;;;;;;;;;5015577;28;20515;-92
2022/08/25 08:28:42;;;;;;;6.60;2.45;;;;;;;;;;4998858;28;20043;-93
2022/08/25 08:31:07;;;;;;;3.53;2.25;;;;;;;;;;4999166;28;20041;-93
2022/08/25 08:33:33;;;;;;;5.25;2.00;;;;;;;;;;4999070;28;20029;-92
2022/08/25 08:36:04;;;;;;;5.18;2.40;;;;;;;;;;4999213;28;20116;-92
2022/08/25 08:38:30;;;;;;;3.75;1.73;;;;;;;;;;5015463;28;20041;-92
2022/08/25 08:44:43;;;;;;;5.53;2.25;;;;;;;;;;5037510;28;20052;-92
2022/08/25 08:47:27;;;;;;;4.43;2.17;;;;;;;;;;5009302;28;20581;-93
2022/08/25 08:50:04;;;;;;;3.85;2.22;;;;;;;;;;5015062;28;20159;-92
2022/08/25 08:52:37;;;;;;;4.85;2.22;;;;;;;;;;4998751;28;20045;-91
2022/08/25 08:55:04;;;;;;;3.67;2.17;;;;;;;;;;4999021;28;20036;-92
2022/08/25 08:57:29;;;;;;;3.90;2.13;;;;;;;;;;5014646;28;20076;-92
2022/08/25 08:59:59;;;;;;;3.17;2.20;;;;;;;;;;5014443;28;20415;-92
2022/08/25 09:02:33;;;;;;;4.35;2.10;;;;;;;;;;4982630;28;20040;-93
2022/08/25 09:05:05;;;;;;;6.07;2.15;;;;;;;;;;5016087;28;20038;-93
2022/08/25 09:07:32;;;;;;;;;;;;;;;;;;4982996;28;20029;-92
2022/08/25 09:09:58;;;;;;;5.28;1.90;;;;;;;;;;5015076;28;19913;-93
2022/08/25 09:12:45;;;;;;;3.63;2.20;;;;;;;;;;4998529;28;20043;-92
2022/08/25 09:16:53;;;;;;;3.50;1.90;;;;;;;;;;5039204;28;20108;-92
2022/08/25 09:18:18;;;;;;;3.90;1.95;;;;;;;;;;5037280;28;20083;-93
2022/08/25 09:20:49;;;;;;;4.75;2.13;;;;;;;;;;5034800;28;20071;-92
2022/08/25 09:23:38;;;;;;;3.88;2.47;;;;;;;;;;5002253;28;20167;-92
2022/08/25 09:29:46;;;;;;;4.10;2.10;;;;;;;;;;5050645;28;20113;-92
2022/08/25 09:32:12;;;;;;;6.23;1.70;;;;;;;;;;5020447;28;20029;-93
2022/08/25 09:34:51;;;;;;;3.55;1.92;;;;;;;;;;5018595;28;20152;-92
2022/08/25 09:37:20;;;;;;;3.55;1.70;;;;;;;;;;4991410;28;20650;-92
2022/08/25 09:39:45;;;;;;;3.53;1.80;;;;;;;;;;5017887;28;20025;-92
2022/08/25 09:42:14;;;;;;;4.88;1.90;;;;;;;;;;5001207;28;20044;-92
2022/08/25 09:44:42;;;;;;;2.67;1.42;;;;;;;;;;5017855;28;20041;-92
2022/08/25 09:47:17;;;;;;;4.03;1.98;;;;;;;;;;5006597;28;20040;-92
2022/08/25 09:49:45;;;;;;;2.70;1.55;;;;;;;;;;5014307;28;20037;-92
2022/08/25 09:52:27;;;;;;;4.22;1.77;;;;;;;;;;5014047;28;20130;-93
2022/08/25 09:54:55;;;;;;;3.28;1.55;;;;;;;;;;4999259;28;20082;-92
2022/08/25 09:57:42;;;;;;;3.20;1.75;;;;;;;;;;5014890;28;20411;-93
2022/08/25 10:00:17;;;;;;;3.63;2.10;;;;;;;;;;5016671;28;20040;-93
2022/08/25 10:02:44;;;;;;;3.47;1.70;;;;;;;;;;5014617;28;20037;-94
2022/08/25 10:05:33;;;;;;;3.40;1.85;;;;;;;;;;5014399;28;20048;-94
2022/08/25 10:08:02;;;;;;;3.53;1.63;;;;;;;;;;4998566;28;20044;-92
2022/08/25 10:10:29;;;;;;;2.90;1.20;;;;;;;;;;5001184;28;20033;-94
2022/08/25 10:12:57;;;;;;;3.60;1.40;;;;;;;;;;5001931;28;20037;-94
2022/08/25 10:15:27;;;;;;;2.25;1.40;;;;;;;;;;5002201;28;20415;-93
2022/08/25 10:17:53;;;;;;;3.25;1.30;;;;;;;;;;5001774;28;20036;-94
2022/08/25 10:20:21;;;;;;;2.80;1.60;;;;;;;;;;5001842;28;20029;-93
2022/08/25 10:22:47;;;;;;;4.32;1.63;;;;;;;;;;5001587;28;20507;-93
2022/08/25 10:25:23;;;;;;;2.30;1.48;;;;;;;;;;4985390;28;20038;-93
2022/08/25 10:28:13;;;;;;;2.58;1.30;;;;;;;;;;5002240;28;20029;-94
2022/08/25 10:31:04;;;;;;;2.15;1.40;;;;;;;;;;5001739;28;20112;-93
2022/08/25 10:33:44;;;;;;;2.47;1.30;;;;;;;;;;5017622;28;20045;-94
2022/08/25 10:36:13;;;;;;;3.05;1.75;;;;;;;;;;5002626;28;20051;-94
2022/08/25 10:38:42;;;;;;;2.05;1.05;;;;;;;;;;5033825;28;20037;-94
2022/08/25 10:41:56;;;;;;;1.85;1.10;;;;;;;;;;5004807;28;20116;-95
2022/08/25 10:48:01;;;;;;;2.00;1.05;;;;;;;;;;5037260;28;20040;-92
2022/08/25 10:50:31;;;;;;;3.25;1.13;;;;;;;;;;5016989;28;20149;-94
2022/08/25 10:53:34;;;;;;;2.90;1.27;;;;;;;;;;5001177;28;20045;-94
2022/08/25 10:56:11;;;;;;;2.55;1.30;;;;;;;;;;5017507;28;20443;-94
2022/08/25 10:58:56;;;;;;;2.65;1.38;;;;;;;;;;5016666;28;20048;-94
2022/08/25 11:01:43;;;;;;;2.50;1.27;;;;;;;;;;5017266;28;20132;-94
2022/08/25 11:04:28;;;;;;;1.52;1.10;;;;;;;;;;5016692;28;20492;-95
2022/08/25 11:07:04;;;;;;;5.30;1.65;;;;;;;;;;5019471;28;20041;-92
2022/08/25 11:09:33;;;;;;;4.10;1.30;;;;;;;;;;5010510;28;20048;-91
2022/08/25 11:12:15;;;;;;;2.97;1.52;;;;;;;;;;5020801;28;20057;-92
2022/08/25 11:15:03;;;;;;;2.38;1.42;;;;;;;;;;5004585;28;20040;-93
2022/08/25 11:17:46;;;;;;;4.75;1.77;;;;;;;;;;5020378;28;20033;-92
2022/08/25 11:20:16;;;;;;;3.47;1.25;;;;;;;;;;5005446;28;20033;-91
2022/08/25 11:22:47;;;;;;;3.40;1.02;;;;;;;;;;5003644;28;20044;-91
2022/08/25 11:25:30;;;;;;;5.25;1.88;;;;;;;;;;5004617;28;20029;-90
2022/08/25 11:28:03;;;;;;;4.45;2.13;;;;;;;;;;5020187;28;20063;-91
2022/08/25 11:30:29;;;;;;;4.25;1.85;;;;;;;;;;5020365;28;20489;-89
2022/08/25 11:32:57;;;;;;;4.03;2.08;;;;;;;;;;5003895;28;20131;-90
2022/08/25 11:35:45;;;;;;;4.55;1.80;;;;;;;;;;5003847;28;20037;-87
2022/08/25 11:38:39;;;;;;;4.57;1.88;;;;;;;;;;5020587;28;20120;-88
2022/08/25 11:41:27;;;;;;;4.28;1.77;;;;;;;;;;5036451;28;20041;-89
2022/08/25 11:44:04;;;;;;;5.85;1.67;;;;;;;;;;5022231;28;20029;-91
2022/08/25 11:47:08;;;;;;;4.07;1.67;;;;;;;;;;5033326;28;20492;-93
2022/08/25 11:49:59;;;;;;;4.78;1.70;;;;;;;;;;5000043;28;20041;-90
2022/08/25 11:52:31;;;;;;;4.47;1.80;;;;;;;;;;5000029;28;20585;-91
2022/08/25 11:55:12;;;;;;;4.22;1.80;;;;;;;;;;5016485;28;20037;-91
2022/08/25 11:57:39;;;;;;;4.70;2.28;;;;;;;;;;5016172;28;20408;-93
2022/08/25 12:00:14;;;;;;;4.85;1.85;;;;;;;;;;4984413;28;20103;-91
2022/08/25 12:02:50;;;;;;;4.72;1.75;;;;;;;;;;5016883;28;20052;-92
2022/08/25 12:05:16;;;;;;;2.00;1.50;;;;;;;;;;5003556;28;20404;-91
2022/08/25 12:07:47;;;;;;;3.92;1.38;;;;;;;;;;5018547;28;20034;-92
2022/08/25 12:10:24;;;;;;;4.25;1.75;;;;;;;;;;5030326;28;20033;-93
2022/08/25 12:12:59;;;;;;;3.50;1.55;;;;;;;;;;5006582;28;20032;-94
2022/08/25 12:15:40;;;;;;;3.67;1.35;;;;;;;;;;5015965;28;20033;-92
2022/08/25 12:18:41;;;;;;;4.07;1.73;;;;;;;;;;5032581;28;20400;-91
2022/08/25 12:21:06;;;;;;;2.78;1.35;;;;;;;;;;5015771;28;20034;-88
2022/08/25 12:24:02;;;;;;;2.50;1.85;;;;;;;;;;5031335;28;20044;-88
2022/08/25 12:26:49;;;;;;;2.33;1.38;;;;;;;;;;5018440;28;20056;-88
2022/08/25 12:29:28;;;;;;;2.20;1.48;;;;;;;;;;5015030;28;20033;-88
2022/08/25 12:31:58;;;;;;;3.67;1.55;;;;;;;;;;5031619;28;20064;-89
2022/08/25 12:34:33;;;;;;;4.07;1.45;;;;;;;;;;5031795;28;20079;-88
2022/08/25 12:37:15;;;;;;;5.30;1.90;;;;;;;;;;5015100;28;20097;-88
2022/08/25 12:39:45;;;;;;;4.00;1.33;;;;;;;;;;5031656;28;20087;-89
2022/08/25 12:42:36;;;;;;;5.32;1.40;;;;;;;;;;5014935;28;20115;-88
2022/08/25 12:45:12;;;;;;;4.13;1.63;;;;;;;;;;5034837;28;20108;-89
2022/08/25 12:47:38;;;;;;;7.60;1.38;;;;;;;;;;5019172;28;20527;-89
2022/08/25 12:50:25;;;;;;;2.92;1.35;;;;;;;;;;4998812;28;20029;-88
2022/08/25 12:52:51;;;;;;;2.40;1.50;;;;;;;;;;5047858;28;20045;-88
2022/08/25 12:55:17;;;;;;;2.47;1.27;;;;;;;;;;4998941;28;20120;-89
2022/08/25 12:57:59;;;;;;;3.92;1.73;;;;;;;;;;5014968;28;20037;-87
2022/08/25 13:00:30;;;;;;;;;;;;;;;;;;5016006;28;20096;-86
2022/08/25 13:03:33;;;;;;;5.53;2.42;;;;;;;;;;5031703;28;20003;-87
2022/08/25 13:06:23;;;;;;;6.00;2.90;;;;;;;;;;5031325;28;20091;-87
2022/08/25 13:09:00;;;;;;;5.25;3.15;;;;;;;;;;5030884;28;20508;-88
2022/08/25 13:11:34;;;;;;;5.13;2.60;;;;;;;;;;5030241;28;20037;-88
2022/08/25 13:14:16;;;;;;;6.43;2.15;;;;;;;;;;5034479;28;20029;-87
2022/08/25 13:16:56;;;;;;;5.20;2.20;;;;;;;;;;5031404;28;20057;-87
2022/08/25 13:19:22;;;;;;;3.90;1.90;;;;;;;;;;5015538;28;20499;-88
2022/08/25 13:21:48;;;;;;;3.00;1.90;;;;;;;;;;4998144;28;20025;-88
2022/08/25 13:24:27;;;;;;;4.78;2.08;;;;;;;;;;4981844;28;20029;-88
2022/08/25 13:26:58;;;;;;;4.55;1.70;;;;;;;;;;4999401;28;20030;-88
2022/08/25 13:29:25;;;;;;;3.13;1.80;;;;;;;;;;4981895;28;20026;-88
2022/08/25 13:31:58;;;;;;;3.20;1.58;;;;;;;;;;4998191;28;20043;-87
2022/08/25 13:34:25;;;;;;;4.35;1.50;;;;;;;;;;4998170;28;20036;-88
2022/08/25 13:39:35;;;;;;;5.28;1.70;;;;;;;;;;5002751;28;20044;-88
2022/08/25 13:42:02;;;;;;;4.78;1.90;;;;;;;;;;4995753;28;20044;-88
2022/08/25 13:44:29;;;;;;;4.95;2.20;;;;;;;;;;5018713;28;20110;-89
2022/08/25 13:47:31;;;;;;;2.55;1.85;;;;;;;;;;5012471;28;20095;-87
2022/08/25 13:50:14;;;;;;;7.68;2.25;;;;;;;;;;5014621;28;20038;-85
2022/08/25 13:52:39;;;;;;;5.85;2.05;;;;;;;;;;5001537;28;20127;-86
2022/08/25 13:55:05;;;;;;;5.25;1.70;;;;;;;;;;5017447;28;20099;-85
2022/08/25 13:57:32;;;;;;;4.78;2.03;;;;;;;;;;4984781;28;20095;-85
2022/08/25 14:00:07;;;;;;;5.93;2.40;;;;;;;;;;5017415;28;20040;-86
2022/08/25 14:02:44;;;;;;;5.20;2.33;;;;;;;;;;5001225;28;20033;-85
2022/08/25 14:05:10;;;;;;;5.20;2.15;;;;;;;;;;5001548;28;20200;-85
2022/08/25 14:07:36;;;;;;;4.32;1.52;;;;;;;;;;5000370;28;20469;-85
2022/08/25 14:10:10;;;;;;;6.05;2.13;;;;;;;;;;5001617;28;20025;-86
2022/08/25 14:12:38;;;;;;;4.22;1.73;;;;;;;;;;5000723;28;20052;-87
2022/08/25 14:15:09;;;;;;;5.47;1.90;;;;;;;;;;5021392;28;20029;-88
2022/08/25 14:17:35;;;;;;;2.83;1.73;;;;;;;;;;5001496;28;20132;-87
2022/08/25 14:20:00;;;;;;;6.63;1.98;;;;;;;;;;5001422;28;20430;-88
2022/08/25 14:22:26;;;;;;;5.03;1.80;;;;;;;;;;5001157;28;20111;-86
2022/08/25 14:24:51;;;;;;;3.50;1.77;;;;;;;;;;5000729;28;20036;-86
2022/08/25 14:27:17;;;;;;;10.80;2.78;;;;;;;;;;5000910;28;20116;-87
2022/08/25 14:29:43;;;;;;;3.70;1.67;;;;;;;;;;5000895;28;20029;-86
2022/08/25 14:32:10;;;;;;;2.95;1.88;;;;;;;;;;5000608;28;20083;-86
2022/08/25 14:34:36;;;;;;;3.33;1.52;;;;;;;;;;5000464;28;20049;-86
2022/08/25 14:37:05;;;;;;;5.20;1.83;;;;;;;;;;5000681;28;20042;-87
2022/08/25 14:39:30;;;;;;;4.47;1.92;;;;;;;;;;5000021;28;20068;-85
2022/08/25 14:41:56;;;;;;;4.68;1.98;;;;;;;;;;5046255;28;20098;-86
2022/08/25 14:44:21;;;;;;;4.07;2.05;;;;;;;;;;5003717;28;20021;-86
2022/08/25 14:46:52;;;;;;;3.05;1.98;;;;;;;;;;5000227;28;20121;-86
2022/08/25 14:49:22;;;;;;;3.17;1.77;;;;;;;;;;5033269;28;20549;-86
2022/08/25 14:51:48;;;;;;;2.45;1.90;;;;;;;;;;5000292;28;20038;-86
2022/08/25 14:54:13;;;;;;;5.53;1.60;;;;;;;;;;5000263;28;20040;-86
2022/08/25 14:56:39;;;;;;;5.60;2.00;;;;;;;;;;5032578;28;20079;-85
2022/08/25 14:59:04;;;;;;;3.78;2.15;;;;;;;;;;5036533;28;20426;-86
2022/08/25 15:01:30;;;;;;;9.68;2.20;;;;;;;;;;5019232;28;20045;-88
2022/08/25 15:04:17;;;;;;;10.30;2.50;;;;;;;;;;5019630;28;20040;-89
2022/08/25 15:06:43;;;;;;;3.83;2.00;;;;;;;;;;5020047;28;20071;-89
2022/08/25 15:09:10;;;;;;;5.72;2.47;;;;;;;;;;5004026;28;20061;-89
2022/08/25 15:11:38;;;;;;;8.40;2.60;;;;;;;;;;5019755;28;20056;-89
2022/08/25 15:14:04;;;;;;;9.32;2.88;;;;;;;;;;5003658;28;20043;-89
2022/08/25 15:16:33;;;;;;;5.35;2.08;;;;;;;;;;5020026;28;20412;-88
2022/08/25 15:18:59;;;;;;;4.72;2.22;;;;;;;;;;5003999;28;20135;-89
2022/08/25 15:21:24;;;;;;;7.35;2.20;;;;;;;;;;5003633;28;20037;-89
2022/08/25 15:23:50;;;;;;;5.22;2.28;;;;;;;;;;5003498;28;20041;-88